SWR282 LSZH-FAOR
Flight info
| Callsign | SWR282 |
|---|---|
| Flight time | 3h 50m |
| Altitude | 33000 |
| Route | VEBIT T53 GERSA N850 SOSON DCT ODINA DCT EVROG/N0472F350 DCT OLBEK DCT OSMAR UM733 TUC/N0472F360 UW411 EBA UG362 BARKA/N0479F350 UM2 TILMA/N0479F370 UM2 DJA UB730 DIR UG727 MIU UM998 MENAX/N0472F390 UM998 BUGRO/N0468F410 UM998 IBRIT UT941 RUDAS UQ25 ITROL/N0475F400 UQ44 AVAGO AVAGO1C |
| Aircraft | A343/H-SDE2E3FGHIJ4J5M1RWXY/LB1D1 |
Departure
| Time | 2026-04-26 08:48 |
|---|---|
| Airport | Zürich Airport (LSZH) |
Arrival
| Time | 2026-04-26 12:38 |
|---|---|
| Airport | O.R. Tambo International Airport (FAOR) |
| Time | Latitude | Longitude | Altitude | Speed | Heading |
|---|---|---|---|---|---|
| 2026-04-26 08:09 | 47.46186 | 8.55378 | 1401 ft | 0 kts | 187° |
| 2026-04-26 08:37 | 47.46192 | 8.55379 | 1401 ft | 4 kts | 190° |
| 2026-04-26 08:37 | 47.46217 | 8.55391 | 1411 ft | 4 kts | 211° |
| 2026-04-26 08:38 | 47.46238 | 8.55415 | 1411 ft | 4 kts | 231° |
| 2026-04-26 08:38 | 47.46251 | 8.55448 | 1411 ft | 4 kts | 251° |
| 2026-04-26 08:38 | 47.46256 | 8.55486 | 1411 ft | 3 kts | 275° |
| 2026-04-26 08:38 | 47.46256 | 8.55490 | 1401 ft | 0 kts | 276° |
| 2026-04-26 08:41 | 47.46257 | 8.55480 | 1401 ft | 2 kts | 276° |
| 2026-04-26 08:41 | 47.46259 | 8.55443 | 1403 ft | 5 kts | 276° |
| 2026-04-26 08:42 | 47.46264 | 8.55381 | 1404 ft | 7 kts | 276° |
| 2026-04-26 08:42 | 47.46270 | 8.55299 | 1404 ft | 9 kts | 275° |
| 2026-04-26 08:42 | 47.46276 | 8.55197 | 1401 ft | 11 kts | 275° |
| 2026-04-26 08:42 | 47.46285 | 8.55073 | 1403 ft | 14 kts | 276° |
| 2026-04-26 08:43 | 47.46297 | 8.54920 | 1408 ft | 15 kts | 276° |
| 2026-04-26 08:43 | 47.46317 | 8.54760 | 1408 ft | 16 kts | 300° |
| 2026-04-26 08:43 | 47.46419 | 8.54666 | 1403 ft | 18 kts | 335° |
| 2026-04-26 08:43 | 47.46533 | 8.54587 | 1403 ft | 19 kts | 335° |
| 2026-04-26 08:44 | 47.46648 | 8.54507 | 1405 ft | 18 kts | 335° |
| 2026-04-26 08:44 | 47.46766 | 8.54432 | 1408 ft | 19 kts | 340° |
| 2026-04-26 08:44 | 47.46877 | 8.54364 | 1409 ft | 16 kts | 335° |
| 2026-04-26 08:44 | 47.46971 | 8.54299 | 1412 ft | 14 kts | 335° |
| 2026-04-26 08:45 | 47.47065 | 8.54235 | 1408 ft | 15 kts | 335° |
| 2026-04-26 08:45 | 47.47158 | 8.54171 | 1412 ft | 14 kts | 335° |
| 2026-04-26 08:45 | 47.47255 | 8.54104 | 1413 ft | 17 kts | 335° |
| 2026-04-26 08:45 | 47.47368 | 8.54026 | 1412 ft | 19 kts | 335° |
| 2026-04-26 08:46 | 47.47493 | 8.53941 | 1408 ft | 21 kts | 335° |
| 2026-04-26 08:46 | 47.47597 | 8.53834 | 1411 ft | 17 kts | 300° |
| 2026-04-26 08:46 | 47.47575 | 8.53679 | 1412 ft | 16 kts | 226° |
| 2026-04-26 08:46 | 47.47466 | 8.53669 | 1405 ft | 18 kts | 160° |
| 2026-04-26 08:47 | 47.47402 | 8.53711 | 1406 ft | 0 kts | 155° |
| 2026-04-26 08:47 | 47.47391 | 8.53718 | 1405 ft | 11 kts | 155° |
| 2026-04-26 08:47 | 47.47114 | 8.53908 | 1410 ft | 80 kts | 155° |
| 2026-04-26 08:47 | 47.46407 | 8.54396 | 1408 ft | 141 kts | 155° |
| 2026-04-26 08:48 | 47.45378 | 8.55101 | 1627 ft | 173 kts | 151° |
| 2026-04-26 08:48 | 47.44305 | 8.55884 | 2418 ft | 170 kts | 145° |
| 2026-04-26 08:48 | 47.43671 | 8.57243 | 3207 ft | 164 kts | 92° |
| 2026-04-26 08:48 | 47.44143 | 8.58780 | 3782 ft | 183 kts | 40° |
| 2026-04-26 08:49 | 47.45450 | 8.59140 | 4296 ft | 216 kts | 349° |
| 2026-04-26 08:49 | 47.46831 | 8.57869 | 4662 ft | 257 kts | 318° |
| 2026-04-26 08:49 | 47.47583 | 8.56477 | 5189 ft | 267 kts | 298° |
| 2026-04-26 08:49 | 47.47892 | 8.53833 | 6526 ft | 259 kts | 262° |
| 2026-04-26 08:50 | 47.47236 | 8.51388 | 7635 ft | 265 kts | 232° |
| 2026-04-26 08:50 | 47.46036 | 8.49237 | 8543 ft | 274 kts | 236° |
| 2026-04-26 08:50 | 47.44609 | 8.46078 | 9813 ft | 285 kts | 237° |
| 2026-04-26 08:50 | 47.43844 | 8.44441 | 10448 ft | 289 kts | 237° |
| 2026-04-26 08:51 | 47.41441 | 8.39528 | 12221 ft | 299 kts | 236° |
| 2026-04-26 08:51 | 47.40197 | 8.37054 | 13139 ft | 303 kts | 234° |
| 2026-04-26 08:51 | 47.38766 | 8.34714 | 13880 ft | 315 kts | 222° |
| 2026-04-26 08:52 | 47.36835 | 8.32983 | 14272 ft | 338 kts | 201° |
| 2026-04-26 08:52 | 47.34445 | 8.32425 | 14616 ft | 361 kts | 182° |
| 2026-04-26 08:52 | 47.31879 | 8.32684 | 15016 ft | 378 kts | 172° |
| 2026-04-26 08:52 | 47.29260 | 8.33393 | 15680 ft | 387 kts | 169° |
| 2026-04-26 08:53 | 47.26609 | 8.34281 | 16128 ft | 395 kts | 167° |
| 2026-04-26 08:53 | 47.23918 | 8.35211 | 16398 ft | 405 kts | 168° |
| 2026-04-26 08:53 | 47.21134 | 8.36134 | 16793 ft | 410 kts | 168° |
| 2026-04-26 08:53 | 47.18334 | 8.37009 | 17247 ft | 414 kts | 169° |
| 2026-04-26 08:54 | 47.15500 | 8.37844 | 17695 ft | 417 kts | 169° |
| 2026-04-26 08:54 | 47.12635 | 8.38658 | 18173 ft | 421 kts | 170° |
| 2026-04-26 08:54 | 47.09748 | 8.39461 | 18622 ft | 424 kts | 170° |
| 2026-04-26 08:54 | 47.06837 | 8.40262 | 19057 ft | 426 kts | 170° |
| 2026-04-26 08:55 | 47.03923 | 8.41062 | 19569 ft | 427 kts | 170° |
| 2026-04-26 08:55 | 47.00989 | 8.41866 | 19975 ft | 430 kts | 170° |
| 2026-04-26 08:55 | 46.98045 | 8.42676 | 20424 ft | 431 kts | 170° |
| 2026-04-26 08:55 | 46.95087 | 8.43491 | 20849 ft | 434 kts | 170° |
| 2026-04-26 08:56 | 46.92111 | 8.44312 | 21253 ft | 436 kts | 170° |
| 2026-04-26 08:56 | 46.89122 | 8.45136 | 21683 ft | 439 kts | 170° |
| 2026-04-26 08:56 | 46.86114 | 8.45964 | 22101 ft | 441 kts | 171° |
| 2026-04-26 08:56 | 46.84042 | 8.46533 | 22361 ft | 443 kts | 171° |
| 2026-04-26 08:57 | 46.82278 | 8.47017 | 22580 ft | 444 kts | 171° |
| 2026-04-26 08:57 | 46.80840 | 8.47412 | 22779 ft | 445 kts | 171° |
| 2026-04-26 08:57 | 46.77790 | 8.48250 | 23177 ft | 447 kts | 171° |
| 2026-04-26 08:57 | 46.74727 | 8.49090 | 23557 ft | 450 kts | 171° |
| 2026-04-26 08:58 | 46.71639 | 8.49935 | 23880 ft | 453 kts | 171° |
| 2026-04-26 08:58 | 46.68538 | 8.50783 | 24180 ft | 455 kts | 171° |
| 2026-04-26 08:58 | 46.65421 | 8.51635 | 24485 ft | 456 kts | 171° |
| 2026-04-26 08:58 | 46.62341 | 8.52475 | 24821 ft | 457 kts | 171° |
| 2026-04-26 08:59 | 46.59154 | 8.53342 | 25068 ft | 460 kts | 171° |
| 2026-04-26 08:59 | 46.56000 | 8.54201 | 25348 ft | 462 kts | 171° |
| 2026-04-26 08:59 | 46.52834 | 8.55062 | 25648 ft | 464 kts | 171° |
| 2026-04-26 08:59 | 46.49652 | 8.55927 | 25932 ft | 466 kts | 171° |
| 2026-04-26 09:00 | 46.46465 | 8.56791 | 26192 ft | 468 kts | 171° |
| 2026-04-26 09:00 | 46.43256 | 8.57660 | 26477 ft | 469 kts | 171° |
| 2026-04-26 09:00 | 46.40085 | 8.58518 | 26725 ft | 470 kts | 171° |
| 2026-04-26 09:00 | 46.36860 | 8.59389 | 26984 ft | 472 kts | 171° |
| 2026-04-26 09:01 | 46.33626 | 8.60263 | 27247 ft | 474 kts | 171° |
| 2026-04-26 09:01 | 46.30382 | 8.61136 | 27512 ft | 476 kts | 171° |
| 2026-04-26 09:01 | 46.27121 | 8.62014 | 27770 ft | 476 kts | 171° |
| 2026-04-26 09:01 | 46.23811 | 8.62903 | 27991 ft | 479 kts | 171° |
| 2026-04-26 09:02 | 46.20530 | 8.63784 | 28206 ft | 481 kts | 171° |
| 2026-04-26 09:02 | 46.17280 | 8.64657 | 28438 ft | 483 kts | 171° |
| 2026-04-26 09:02 | 46.13973 | 8.65543 | 28697 ft | 484 kts | 171° |
| 2026-04-26 09:02 | 46.10681 | 8.66520 | 28914 ft | 486 kts | 167° |
| 2026-04-26 09:03 | 46.07410 | 8.67785 | 29193 ft | 486 kts | 166° |
| 2026-04-26 09:03 | 46.04117 | 8.69133 | 29584 ft | 484 kts | 166° |
| 2026-04-26 09:03 | 46.00882 | 8.70492 | 29888 ft | 484 kts | 165° |
| 2026-04-26 09:03 | 45.97699 | 8.71845 | 30180 ft | 483 kts | 165° |
| 2026-04-26 09:04 | 45.94479 | 8.73217 | 30409 ft | 484 kts | 165° |
| 2026-04-26 09:04 | 45.91243 | 8.74592 | 30560 ft | 486 kts | 165° |
| 2026-04-26 09:04 | 45.88003 | 8.75964 | 30811 ft | 485 kts | 165° |
| 2026-04-26 09:04 | 45.84769 | 8.77328 | 31093 ft | 484 kts | 165° |
| 2026-04-26 09:05 | 45.81556 | 8.78680 | 31352 ft | 483 kts | 165° |
| 2026-04-26 09:05 | 45.78327 | 8.80035 | 31602 ft | 482 kts | 165° |
| 2026-04-26 09:05 | 45.75112 | 8.81381 | 31843 ft | 481 kts | 166° |
| 2026-04-26 09:05 | 45.71899 | 8.82724 | 32089 ft | 480 kts | 166° |
| 2026-04-26 09:06 | 45.68704 | 8.84059 | 32339 ft | 480 kts | 166° |
| 2026-04-26 09:06 | 45.65491 | 8.85399 | 32573 ft | 479 kts | 166° |
| 2026-04-26 09:06 | 45.62292 | 8.86732 | 32782 ft | 479 kts | 166° |
| 2026-04-26 09:06 | 45.59098 | 8.88062 | 33005 ft | 478 kts | 166° |
| 2026-04-26 09:07 | 45.55904 | 8.89390 | 33118 ft | 480 kts | 166° |
| 2026-04-26 09:07 | 45.49478 | 8.92056 | 33123 ft | 480 kts | 166° |
| 2026-04-26 09:08 | 45.43067 | 8.94712 | 33119 ft | 479 kts | 166° |
| 2026-04-26 09:08 | 45.36656 | 8.97359 | 33107 ft | 481 kts | 165° |
| 2026-04-26 09:09 | 45.30228 | 9.00010 | 33118 ft | 481 kts | 165° |
| 2026-04-26 09:09 | 45.23799 | 9.02655 | 33108 ft | 481 kts | 165° |
| 2026-04-26 09:10 | 45.17371 | 9.05292 | 33105 ft | 481 kts | 165° |
| 2026-04-26 09:10 | 45.10944 | 9.07923 | 33106 ft | 481 kts | 165° |
| 2026-04-26 09:11 | 45.04511 | 9.10550 | 33107 ft | 481 kts | 165° |
| 2026-04-26 09:11 | 44.98079 | 9.13170 | 33119 ft | 481 kts | 165° |
| 2026-04-26 09:12 | 44.91651 | 9.15783 | 33119 ft | 481 kts | 165° |
| 2026-04-26 09:12 | 44.85219 | 9.18391 | 33121 ft | 481 kts | 165° |
| 2026-04-26 09:13 | 44.78793 | 9.20991 | 33120 ft | 480 kts | 165° |
| 2026-04-26 09:13 | 44.72377 | 9.23581 | 33130 ft | 480 kts | 165° |
| 2026-04-26 09:14 | 44.65955 | 9.26166 | 33123 ft | 480 kts | 165° |
| 2026-04-26 09:14 | 44.59539 | 9.28744 | 33129 ft | 479 kts | 165° |
| 2026-04-26 09:15 | 44.53127 | 9.31314 | 33131 ft | 479 kts | 165° |
| 2026-04-26 09:15 | 44.46717 | 9.33877 | 33132 ft | 479 kts | 165° |
| 2026-04-26 09:16 | 44.40311 | 9.36432 | 33135 ft | 478 kts | 165° |
| 2026-04-26 09:16 | 44.33959 | 9.38963 | 33146 ft | 478 kts | 165° |
| 2026-04-26 09:17 | 44.27517 | 9.41522 | 33152 ft | 478 kts | 166° |
| 2026-04-26 09:17 | 44.21165 | 9.44038 | 33163 ft | 478 kts | 165° |
| 2026-04-26 09:18 | 44.14763 | 9.46569 | 33160 ft | 478 kts | 166° |
| 2026-04-26 09:18 | 44.08368 | 9.49092 | 33163 ft | 477 kts | 166° |
| 2026-04-26 09:19 | 44.01973 | 9.51609 | 33165 ft | 477 kts | 166° |
| 2026-04-26 09:19 | 43.95582 | 9.54119 | 33177 ft | 477 kts | 166° |
| 2026-04-26 09:20 | 43.89197 | 9.56621 | 33179 ft | 477 kts | 166° |
| 2026-04-26 09:20 | 43.82806 | 9.59120 | 33180 ft | 477 kts | 166° |
| 2026-04-26 09:21 | 43.76418 | 9.61612 | 33181 ft | 477 kts | 166° |
| 2026-04-26 09:21 | 43.70037 | 9.64096 | 33178 ft | 477 kts | 166° |
| 2026-04-26 09:22 | 43.63653 | 9.66576 | 33188 ft | 477 kts | 166° |
| 2026-04-26 09:22 | 43.57269 | 9.69050 | 33181 ft | 476 kts | 166° |
| 2026-04-26 09:23 | 43.50893 | 9.71515 | 33180 ft | 476 kts | 166° |
| 2026-04-26 09:23 | 43.44521 | 9.73974 | 33182 ft | 476 kts | 166° |
| 2026-04-26 09:24 | 43.38146 | 9.76428 | 33184 ft | 475 kts | 166° |
| 2026-04-26 09:24 | 43.31825 | 9.78856 | 33180 ft | 475 kts | 166° |
| 2026-04-26 09:25 | 43.25370 | 9.80972 | 33404 ft | 473 kts | 174° |
| 2026-04-26 09:25 | 43.22142 | 9.81320 | 33606 ft | 471 kts | 179° |
| 2026-04-26 09:25 | 43.18875 | 9.81496 | 33825 ft | 469 kts | 180° |
| 2026-04-26 09:25 | 43.15613 | 9.81593 | 34046 ft | 468 kts | 181° |
| 2026-04-26 09:26 | 43.12314 | 9.81652 | 34233 ft | 468 kts | 181° |
| 2026-04-26 09:26 | 43.09061 | 9.81697 | 34372 ft | 468 kts | 181° |
| 2026-04-26 09:26 | 43.05807 | 9.81744 | 34523 ft | 467 kts | 181° |
| 2026-04-26 09:26 | 43.02598 | 9.81797 | 34661 ft | 467 kts | 181° |
| 2026-04-26 09:27 | 42.99350 | 9.81856 | 34791 ft | 467 kts | 181° |
| 2026-04-26 09:27 | 42.96103 | 9.81920 | 34944 ft | 467 kts | 181° |
| 2026-04-26 09:27 | 42.92853 | 9.81987 | 35076 ft | 466 kts | 181° |
| 2026-04-26 09:28 | 42.86347 | 9.82124 | 35177 ft | 470 kts | 181° |
| 2026-04-26 09:28 | 42.79788 | 9.82261 | 35165 ft | 471 kts | 181° |
| 2026-04-26 09:29 | 42.73246 | 9.82399 | 35171 ft | 470 kts | 181° |
| 2026-04-26 09:29 | 42.66710 | 9.82535 | 35167 ft | 470 kts | 181° |
| 2026-04-26 09:30 | 42.60176 | 9.82670 | 35168 ft | 470 kts | 181° |
| 2026-04-26 09:30 | 42.53639 | 9.82805 | 35164 ft | 470 kts | 180° |
| 2026-04-26 09:31 | 42.47102 | 9.82939 | 35167 ft | 470 kts | 180° |
| 2026-04-26 09:31 | 42.40563 | 9.83074 | 35172 ft | 470 kts | 180° |
| 2026-04-26 09:32 | 42.34020 | 9.83208 | 35170 ft | 470 kts | 180° |
| 2026-04-26 09:32 | 42.27475 | 9.83342 | 35174 ft | 470 kts | 180° |
| 2026-04-26 09:33 | 42.20930 | 9.83477 | 35176 ft | 471 kts | 180° |
| 2026-04-26 09:33 | 42.14386 | 9.83610 | 35175 ft | 471 kts | 180° |
| 2026-04-26 09:34 | 42.07838 | 9.83743 | 35175 ft | 471 kts | 180° |
| 2026-04-26 09:34 | 42.01289 | 9.83876 | 35176 ft | 471 kts | 180° |
| 2026-04-26 09:35 | 41.95850 | 9.83986 | 35172 ft | 471 kts | 180° |
| 2026-04-26 09:35 | 41.89301 | 9.84119 | 35173 ft | 471 kts | 180° |
| 2026-04-26 09:36 | 41.82745 | 9.84251 | 35174 ft | 471 kts | 180° |
| 2026-04-26 09:36 | 41.76191 | 9.84383 | 35175 ft | 471 kts | 180° |
| 2026-04-26 09:37 | 41.69634 | 9.84515 | 35176 ft | 471 kts | 180° |
| 2026-04-26 09:37 | 41.63077 | 9.84647 | 35176 ft | 471 kts | 180° |
| 2026-04-26 09:38 | 41.56516 | 9.84778 | 35175 ft | 471 kts | 180° |
| 2026-04-26 09:38 | 41.49958 | 9.84909 | 35179 ft | 472 kts | 180° |
| 2026-04-26 09:39 | 41.43398 | 9.85040 | 35178 ft | 472 kts | 180° |
| 2026-04-26 09:39 | 41.36834 | 9.85171 | 35178 ft | 472 kts | 180° |
| 2026-04-26 09:40 | 41.30267 | 9.85302 | 35178 ft | 472 kts | 180° |
| 2026-04-26 09:40 | 41.23700 | 9.85421 | 35177 ft | 472 kts | 181° |
| 2026-04-26 09:41 | 41.17137 | 9.85294 | 35178 ft | 472 kts | 182° |
| 2026-04-26 09:41 | 41.10574 | 9.85073 | 35175 ft | 472 kts | 182° |
| 2026-04-26 09:42 | 41.03998 | 9.84885 | 35170 ft | 473 kts | 182° |
| 2026-04-26 09:42 | 40.97424 | 9.84726 | 35170 ft | 473 kts | 182° |
| 2026-04-26 09:43 | 40.90843 | 9.84577 | 35166 ft | 473 kts | 181° |
| 2026-04-26 09:43 | 40.84261 | 9.84429 | 35166 ft | 473 kts | 181° |
| 2026-04-26 09:44 | 40.77678 | 9.84279 | 35179 ft | 473 kts | 181° |
| 2026-04-26 09:44 | 40.71090 | 9.84128 | 35178 ft | 473 kts | 181° |
| 2026-04-26 09:45 | 40.64502 | 9.83978 | 35187 ft | 473 kts | 181° |
| 2026-04-26 09:45 | 40.57961 | 9.83829 | 35174 ft | 473 kts | 181° |
| 2026-04-26 09:46 | 40.51370 | 9.83680 | 35175 ft | 473 kts | 181° |
| 2026-04-26 09:46 | 40.44785 | 9.83530 | 35175 ft | 474 kts | 181° |
| 2026-04-26 09:47 | 40.38185 | 9.83381 | 35174 ft | 474 kts | 181° |
| 2026-04-26 09:47 | 40.31585 | 9.83232 | 35173 ft | 475 kts | 181° |
| 2026-04-26 09:48 | 40.24975 | 9.83084 | 35179 ft | 475 kts | 181° |
| 2026-04-26 09:48 | 40.18367 | 9.82935 | 35182 ft | 475 kts | 181° |
| 2026-04-26 09:49 | 40.11757 | 9.82787 | 35181 ft | 475 kts | 181° |
| 2026-04-26 09:49 | 40.05153 | 9.82639 | 35179 ft | 475 kts | 181° |
| 2026-04-26 09:50 | 39.98533 | 9.82491 | 35172 ft | 476 kts | 181° |
| 2026-04-26 09:50 | 39.91906 | 9.82343 | 35185 ft | 476 kts | 182° |
| 2026-04-26 09:51 | 39.85285 | 9.82196 | 35184 ft | 476 kts | 182° |
| 2026-04-26 09:51 | 39.78653 | 9.82048 | 35183 ft | 476 kts | 181° |
| 2026-04-26 09:52 | 39.72027 | 9.81902 | 35181 ft | 476 kts | 181° |
| 2026-04-26 09:52 | 39.62080 | 9.81682 | 35177 ft | 477 kts | 181° |
| 2026-04-26 09:53 | 39.55446 | 9.81535 | 35188 ft | 477 kts | 181° |
| 2026-04-26 09:53 | 39.48815 | 9.81389 | 35178 ft | 477 kts | 181° |
| 2026-04-26 09:54 | 39.42185 | 9.81243 | 35183 ft | 477 kts | 181° |
| 2026-04-26 09:54 | 39.35552 | 9.81098 | 35178 ft | 477 kts | 182° |
| 2026-04-26 09:55 | 39.28923 | 9.80953 | 35181 ft | 477 kts | 182° |
| 2026-04-26 09:55 | 39.22294 | 9.80808 | 35181 ft | 477 kts | 182° |
| 2026-04-26 09:56 | 39.15705 | 9.80664 | 35179 ft | 477 kts | 182° |
| 2026-04-26 09:56 | 39.09079 | 9.80520 | 35185 ft | 477 kts | 182° |
| 2026-04-26 09:57 | 39.02442 | 9.80376 | 35176 ft | 477 kts | 182° |
| 2026-04-26 09:57 | 38.95811 | 9.80232 | 35187 ft | 477 kts | 182° |
| 2026-04-26 09:58 | 38.89176 | 9.80088 | 35180 ft | 476 kts | 182° |
| 2026-04-26 09:58 | 38.82552 | 9.79945 | 35186 ft | 476 kts | 182° |
| 2026-04-26 09:59 | 38.75932 | 9.79802 | 35177 ft | 476 kts | 182° |
| 2026-04-26 09:59 | 38.69302 | 9.79660 | 35174 ft | 476 kts | 182° |
| 2026-04-26 10:00 | 38.62694 | 9.79518 | 35183 ft | 475 kts | 182° |
| 2026-04-26 10:00 | 38.56092 | 9.79376 | 35185 ft | 475 kts | 182° |
| 2026-04-26 10:01 | 38.49489 | 9.79235 | 35178 ft | 474 kts | 182° |
| 2026-04-26 10:01 | 38.42891 | 9.79094 | 35176 ft | 473 kts | 183° |
| 2026-04-26 10:02 | 38.36313 | 9.78953 | 35176 ft | 473 kts | 183° |
| 2026-04-26 10:02 | 38.29735 | 9.78813 | 35177 ft | 473 kts | 183° |
| 2026-04-26 10:03 | 38.23181 | 9.79548 | 35162 ft | 475 kts | 170° |
| 2026-04-26 10:03 | 38.16724 | 9.81447 | 35171 ft | 477 kts | 168° |
| 2026-04-26 10:04 | 38.10306 | 9.83542 | 35178 ft | 477 kts | 167° |
| 2026-04-26 10:04 | 38.03879 | 9.85647 | 35173 ft | 477 kts | 168° |
| 2026-04-26 10:05 | 37.97445 | 9.87723 | 35174 ft | 477 kts | 168° |
| 2026-04-26 10:05 | 37.91012 | 9.89781 | 35170 ft | 477 kts | 168° |
| 2026-04-26 10:06 | 37.84578 | 9.91831 | 35170 ft | 477 kts | 168° |
| 2026-04-26 10:06 | 37.78144 | 9.93880 | 35170 ft | 477 kts | 168° |
| 2026-04-26 10:07 | 37.71702 | 9.95933 | 35168 ft | 478 kts | 168° |
| 2026-04-26 10:07 | 37.65301 | 9.97964 | 35167 ft | 478 kts | 168° |
| 2026-04-26 10:08 | 37.58845 | 10.00007 | 35170 ft | 478 kts | 168° |
| 2026-04-26 10:08 | 37.52400 | 10.02044 | 35162 ft | 478 kts | 168° |
| 2026-04-26 10:09 | 37.45950 | 10.04081 | 35169 ft | 478 kts | 168° |
| 2026-04-26 10:09 | 37.39504 | 10.06113 | 35166 ft | 478 kts | 168° |
| 2026-04-26 10:10 | 37.33055 | 10.08142 | 35164 ft | 478 kts | 168° |
| 2026-04-26 10:10 | 37.26609 | 10.10167 | 35157 ft | 477 kts | 168° |
| 2026-04-26 10:11 | 37.20176 | 10.12185 | 35154 ft | 476 kts | 168° |
| 2026-04-26 10:11 | 37.13752 | 10.14195 | 35154 ft | 476 kts | 168° |
| 2026-04-26 10:12 | 37.07331 | 10.16201 | 35162 ft | 476 kts | 169° |
| 2026-04-26 10:12 | 37.00905 | 10.18206 | 35151 ft | 476 kts | 169° |
| 2026-04-26 10:13 | 36.94484 | 10.20205 | 35164 ft | 475 kts | 169° |
| 2026-04-26 10:13 | 36.88101 | 10.22143 | 35178 ft | 474 kts | 173° |
| 2026-04-26 10:14 | 36.84847 | 10.22648 | 35344 ft | 470 kts | 181° |
| 2026-04-26 10:14 | 36.81598 | 10.22583 | 35489 ft | 466 kts | 186° |
| 2026-04-26 10:14 | 36.78368 | 10.22285 | 35611 ft | 465 kts | 188° |
| 2026-04-26 10:14 | 36.75154 | 10.21894 | 35785 ft | 464 kts | 189° |
| 2026-04-26 10:15 | 36.71944 | 10.21458 | 35900 ft | 463 kts | 189° |
| 2026-04-26 10:15 | 36.68739 | 10.21009 | 36019 ft | 464 kts | 189° |
| 2026-04-26 10:15 | 36.65534 | 10.20562 | 36124 ft | 464 kts | 189° |
| 2026-04-26 10:15 | 36.62317 | 10.20121 | 36158 ft | 466 kts | 189° |
| 2026-04-26 10:16 | 36.55845 | 10.19256 | 36163 ft | 468 kts | 189° |
| 2026-04-26 10:16 | 36.49385 | 10.18411 | 36163 ft | 466 kts | 190° |
| 2026-04-26 10:17 | 36.42930 | 10.17570 | 36165 ft | 466 kts | 190° |
| 2026-04-26 10:17 | 36.36478 | 10.16729 | 36166 ft | 466 kts | 190° |
| 2026-04-26 10:18 | 36.30028 | 10.15890 | 36155 ft | 466 kts | 191° |
| 2026-04-26 10:18 | 36.23583 | 10.15052 | 36159 ft | 466 kts | 191° |
| 2026-04-26 10:19 | 36.17136 | 10.14215 | 36166 ft | 465 kts | 191° |
| 2026-04-26 10:19 | 36.10693 | 10.13386 | 36161 ft | 466 kts | 191° |
| 2026-04-26 10:20 | 36.05186 | 10.12682 | 36157 ft | 466 kts | 191° |
| 2026-04-26 10:20 | 35.75131 | 10.08854 | 36156 ft | 467 kts | 192° |
| 2026-04-26 10:21 | 35.49053 | 10.08358 | 36152 ft | 480 kts | 177° |
| 2026-04-26 10:21 | 35.27085 | 10.12555 | 36150 ft | 481 kts | 178° |
| 2026-04-26 10:22 | 35.00630 | 10.17469 | 36151 ft | 481 kts | 178° |
| 2026-04-26 10:22 | 34.74084 | 10.22369 | 36151 ft | 484 kts | 178° |
| 2026-04-26 10:23 | 34.47469 | 10.27252 | 36154 ft | 483 kts | 178° |
| 2026-04-26 10:23 | 34.20893 | 10.32095 | 36151 ft | 482 kts | 178° |
| 2026-04-26 10:24 | 33.94318 | 10.36906 | 36142 ft | 483 kts | 178° |
| 2026-04-26 10:24 | 33.67735 | 10.41689 | 36134 ft | 484 kts | 178° |
| 2026-04-26 10:25 | 33.41070 | 10.46458 | 36127 ft | 483 kts | 178° |
| 2026-04-26 10:25 | 33.14460 | 10.51188 | 36131 ft | 482 kts | 178° |
| 2026-04-26 10:26 | 32.87934 | 10.55872 | 36126 ft | 482 kts | 178° |
| 2026-04-26 10:26 | 32.61367 | 10.60536 | 36122 ft | 481 kts | 178° |
| 2026-04-26 10:27 | 32.34837 | 10.65165 | 36116 ft | 482 kts | 178° |
| 2026-04-26 10:27 | 32.08464 | 10.69741 | 36118 ft | 482 kts | 178° |
| 2026-04-26 10:28 | 31.81878 | 10.74326 | 36108 ft | 482 kts | 178° |
| 2026-04-26 10:28 | 31.55355 | 10.78874 | 36100 ft | 482 kts | 178° |
| 2026-04-26 10:29 | 31.28820 | 10.83398 | 36095 ft | 482 kts | 178° |
| 2026-04-26 10:29 | 31.02283 | 10.87897 | 36100 ft | 482 kts | 178° |
| 2026-04-26 10:30 | 30.75682 | 10.92380 | 36095 ft | 483 kts | 178° |
| 2026-04-26 10:30 | 30.49093 | 10.96837 | 36078 ft | 483 kts | 178° |
| 2026-04-26 10:31 | 30.22577 | 11.01258 | 36087 ft | 481 kts | 178° |
| 2026-04-26 10:31 | 29.96060 | 11.05654 | 36085 ft | 481 kts | 178° |
| 2026-04-26 10:32 | 29.69505 | 11.10033 | 36097 ft | 482 kts | 178° |
| 2026-04-26 10:32 | 29.43006 | 11.14380 | 36094 ft | 481 kts | 178° |
| 2026-04-26 10:33 | 29.16544 | 11.18697 | 36103 ft | 480 kts | 179° |
| 2026-04-26 10:33 | 28.90086 | 11.22993 | 36107 ft | 480 kts | 179° |
| 2026-04-26 10:34 | 28.63629 | 11.27264 | 36109 ft | 481 kts | 179° |
| 2026-04-26 10:34 | 28.37106 | 11.31524 | 36107 ft | 482 kts | 179° |
| 2026-04-26 10:35 | 28.10527 | 11.35773 | 36108 ft | 483 kts | 179° |
| 2026-04-26 10:35 | 27.83867 | 11.40014 | 36099 ft | 484 kts | 179° |
| 2026-04-26 10:36 | 27.57123 | 11.44247 | 36065 ft | 485 kts | 179° |
| 2026-04-26 10:36 | 27.30543 | 11.48433 | 36089 ft | 486 kts | 179° |
| 2026-04-26 10:37 | 27.03758 | 11.52632 | 36084 ft | 486 kts | 179° |
| 2026-04-26 10:37 | 26.76776 | 11.56840 | 36081 ft | 487 kts | 180° |
| 2026-04-26 10:38 | 26.50103 | 11.60980 | 36074 ft | 487 kts | 180° |
| 2026-04-26 10:38 | 26.23234 | 11.65132 | 36080 ft | 487 kts | 180° |
| 2026-04-26 10:39 | 25.96358 | 11.69266 | 36090 ft | 488 kts | 181° |
| 2026-04-26 10:39 | 25.69470 | 11.73381 | 36101 ft | 488 kts | 181° |
| 2026-04-26 10:40 | 25.42553 | 11.77483 | 36110 ft | 488 kts | 181° |
| 2026-04-26 10:40 | 25.15648 | 11.81564 | 36088 ft | 488 kts | 181° |
| 2026-04-26 10:41 | 24.88747 | 11.85627 | 36122 ft | 488 kts | 182° |
| 2026-04-26 10:41 | 24.61819 | 11.89677 | 36126 ft | 488 kts | 182° |
| 2026-04-26 10:42 | 24.34922 | 11.93703 | 36127 ft | 487 kts | 182° |
| 2026-04-26 10:42 | 24.08094 | 11.97701 | 36126 ft | 487 kts | 182° |
| 2026-04-26 10:43 | 23.83477 | 12.01356 | 36119 ft | 488 kts | 182° |
| 2026-04-26 10:43 | 23.76745 | 12.02352 | 36115 ft | 488 kts | 182° |
| 2026-04-26 10:44 | 23.61189 | 12.04653 | 36116 ft | 488 kts | 182° |
| 2026-04-26 10:44 | 23.34214 | 12.08628 | 36106 ft | 489 kts | 182° |
| 2026-04-26 10:45 | 23.07211 | 12.12591 | 36092 ft | 491 kts | 182° |
| 2026-04-26 10:45 | 22.80110 | 12.16552 | 36080 ft | 492 kts | 182° |
| 2026-04-26 10:46 | 22.52972 | 12.20504 | 36064 ft | 491 kts | 182° |
| 2026-04-26 10:46 | 22.25911 | 12.24430 | 36058 ft | 491 kts | 182° |
| 2026-04-26 10:47 | 21.98765 | 12.28349 | 36001 ft | 491 kts | 181° |
| 2026-04-26 10:47 | 21.71687 | 12.32245 | 36017 ft | 491 kts | 181° |
| 2026-04-26 10:48 | 21.44826 | 12.36096 | 36013 ft | 490 kts | 181° |
| 2026-04-26 10:48 | 21.17859 | 12.39948 | 36004 ft | 487 kts | 180° |
| 2026-04-26 10:49 | 20.91021 | 12.43765 | 35988 ft | 486 kts | 180° |
| 2026-04-26 10:49 | 20.64189 | 12.47569 | 35975 ft | 486 kts | 180° |
| 2026-04-26 10:50 | 20.41924 | 12.50715 | 35979 ft | 485 kts | 180° |
| 2026-04-26 10:50 | 20.10679 | 12.55115 | 35969 ft | 484 kts | 180° |
| 2026-04-26 10:51 | 19.70617 | 12.60730 | 35963 ft | 484 kts | 179° |
| 2026-04-26 10:52 | 19.43874 | 12.64463 | 35959 ft | 484 kts | 179° |
| 2026-04-26 10:52 | 19.17145 | 12.68182 | 35957 ft | 485 kts | 179° |
| 2026-04-26 10:53 | 18.90451 | 12.71884 | 35953 ft | 484 kts | 178° |
| 2026-04-26 10:53 | 18.63872 | 12.75557 | 35950 ft | 483 kts | 178° |
| 2026-04-26 10:54 | 18.23918 | 12.81058 | 35941 ft | 482 kts | 178° |
| 2026-04-26 10:54 | 17.97284 | 12.84710 | 35929 ft | 482 kts | 178° |
| 2026-04-26 10:55 | 17.70658 | 12.88351 | 35927 ft | 482 kts | 178° |
| 2026-04-26 10:55 | 17.48547 | 12.91365 | 35923 ft | 482 kts | 178° |
| 2026-04-26 10:56 | 17.17509 | 12.93987 | 35928 ft | 476 kts | 183° |
| 2026-04-26 10:56 | 16.91014 | 12.94827 | 35917 ft | 476 kts | 183° |
| 2026-04-26 10:57 | 16.64574 | 12.95683 | 35910 ft | 476 kts | 183° |
| 2026-04-26 10:57 | 16.38043 | 12.96537 | 35907 ft | 476 kts | 182° |
| 2026-04-26 10:58 | 16.11583 | 12.97388 | 35895 ft | 476 kts | 182° |
| 2026-04-26 10:58 | 15.85092 | 12.98238 | 35883 ft | 475 kts | 182° |
| 2026-04-26 10:59 | 15.58628 | 12.99076 | 35881 ft | 476 kts | 182° |
| 2026-04-26 10:59 | 15.32183 | 12.99917 | 35883 ft | 476 kts | 182° |
| 2026-04-26 11:00 | 15.05867 | 13.00750 | 35885 ft | 476 kts | 181° |
| 2026-04-26 11:00 | 14.79208 | 13.01592 | 35887 ft | 476 kts | 181° |
| 2026-04-26 11:01 | 14.52867 | 13.02422 | 35880 ft | 477 kts | 181° |
| 2026-04-26 11:01 | 14.26144 | 13.03263 | 35879 ft | 477 kts | 181° |
| 2026-04-26 11:02 | 13.99590 | 13.03883 | 35878 ft | 477 kts | 181° |
| 2026-04-26 11:02 | 13.73207 | 13.04495 | 35878 ft | 477 kts | 181° |
| 2026-04-26 11:03 | 13.46654 | 13.05152 | 35884 ft | 477 kts | 181° |
| 2026-04-26 11:03 | 13.20107 | 13.05939 | 35883 ft | 477 kts | 181° |
| 2026-04-26 11:04 | 12.93624 | 13.06712 | 35876 ft | 476 kts | 181° |
| 2026-04-26 11:04 | 12.67115 | 13.07485 | 35876 ft | 478 kts | 180° |
| 2026-04-26 11:05 | 12.40484 | 13.08260 | 35876 ft | 479 kts | 180° |
| 2026-04-26 11:05 | 12.13800 | 13.09032 | 35875 ft | 480 kts | 180° |
| 2026-04-26 11:06 | 11.91552 | 13.09671 | 35876 ft | 482 kts | 180° |
| 2026-04-26 11:06 | 11.74025 | 13.13814 | 35879 ft | 486 kts | 164° |
| 2026-04-26 11:06 | 11.61121 | 13.17902 | 35881 ft | 485 kts | 164° |
| 2026-04-26 11:07 | 11.35323 | 13.25949 | 35881 ft | 485 kts | 164° |
| 2026-04-26 11:07 | 11.09525 | 13.33978 | 35891 ft | 484 kts | 164° |
| 2026-04-26 11:08 | 10.83811 | 13.41966 | 35905 ft | 483 kts | 164° |
| 2026-04-26 11:08 | 10.58074 | 13.49943 | 35918 ft | 483 kts | 165° |
| 2026-04-26 11:09 | 10.36659 | 13.56104 | 35935 ft | 481 kts | 166° |
| 2026-04-26 11:09 | 10.10898 | 13.63556 | 35939 ft | 481 kts | 165° |
| 2026-04-26 11:10 | 9.85150 | 13.71015 | 35932 ft | 480 kts | 166° |
| 2026-04-26 11:10 | 9.59479 | 13.78444 | 35920 ft | 480 kts | 166° |
| 2026-04-26 11:11 | 9.33878 | 13.85929 | 35913 ft | 478 kts | 164° |
| 2026-04-26 11:11 | 9.08315 | 13.93301 | 35913 ft | 476 kts | 164° |
| 2026-04-26 11:12 | 8.82784 | 14.00662 | 35911 ft | 476 kts | 164° |
| 2026-04-26 11:12 | 8.57282 | 14.08007 | 35910 ft | 476 kts | 163° |
| 2026-04-26 11:13 | 8.31782 | 14.15325 | 35917 ft | 477 kts | 163° |
| 2026-04-26 11:13 | 8.06249 | 14.22650 | 35948 ft | 477 kts | 163° |
| 2026-04-26 11:14 | 7.80678 | 14.29980 | 35958 ft | 477 kts | 163° |
| 2026-04-26 11:14 | 7.55133 | 14.37291 | 35964 ft | 478 kts | 163° |
| 2026-04-26 11:15 | 7.29554 | 14.44604 | 35979 ft | 478 kts | 163° |
| 2026-04-26 11:15 | 7.04182 | 14.51850 | 35968 ft | 478 kts | 163° |
| 2026-04-26 11:16 | 6.78550 | 14.59161 | 35977 ft | 478 kts | 163° |
| 2026-04-26 11:16 | 6.52938 | 14.66453 | 35981 ft | 478 kts | 163° |
| 2026-04-26 11:17 | 6.27322 | 14.73749 | 35975 ft | 478 kts | 163° |
| 2026-04-26 11:17 | 6.01675 | 14.81040 | 35977 ft | 479 kts | 163° |
| 2026-04-26 11:18 | 5.75949 | 14.88347 | 35976 ft | 481 kts | 163° |
| 2026-04-26 11:18 | 5.50227 | 14.95646 | 35977 ft | 480 kts | 163° |
| 2026-04-26 11:19 | 5.24432 | 15.02959 | 35976 ft | 482 kts | 163° |
| 2026-04-26 11:19 | 4.98606 | 15.10275 | 35975 ft | 484 kts | 163° |
| 2026-04-26 11:20 | 4.77078 | 15.16369 | 35973 ft | 484 kts | 163° |
| 2026-04-26 11:20 | 4.47014 | 15.24870 | 35969 ft | 482 kts | 163° |
| 2026-04-26 11:21 | 4.21250 | 15.32151 | 35968 ft | 480 kts | 163° |
| 2026-04-26 11:21 | 3.95547 | 15.39371 | 35969 ft | 481 kts | 163° |
| 2026-04-26 11:22 | 3.69725 | 15.46601 | 35969 ft | 481 kts | 163° |
| 2026-04-26 11:22 | 3.43906 | 15.53831 | 35971 ft | 482 kts | 163° |
| 2026-04-26 11:23 | 3.18076 | 15.61061 | 35980 ft | 482 kts | 163° |
| 2026-04-26 11:23 | 2.92252 | 15.68285 | 35976 ft | 480 kts | 163° |
| 2026-04-26 11:24 | 2.66501 | 15.75525 | 35977 ft | 481 kts | 163° |
| 2026-04-26 11:24 | 2.40773 | 15.82789 | 35974 ft | 480 kts | 163° |
| 2026-04-26 11:25 | 2.15089 | 15.90037 | 35974 ft | 480 kts | 163° |
| 2026-04-26 11:25 | 1.89368 | 15.97294 | 35969 ft | 480 kts | 163° |
| 2026-04-26 11:26 | 1.63680 | 16.04539 | 35971 ft | 480 kts | 163° |
| 2026-04-26 11:26 | 1.37971 | 16.11788 | 35977 ft | 481 kts | 163° |
| 2026-04-26 11:27 | 1.12218 | 16.19048 | 35979 ft | 481 kts | 163° |
| 2026-04-26 11:27 | 0.86458 | 16.26316 | 35980 ft | 480 kts | 163° |
| 2026-04-26 11:28 | 0.60733 | 16.33557 | 35979 ft | 480 kts | 163° |
| 2026-04-26 11:28 | 0.35022 | 16.40803 | 35982 ft | 481 kts | 163° |
| 2026-04-26 11:29 | 0.09159 | 16.48089 | 35988 ft | 483 kts | 163° |
| 2026-04-26 11:29 | -0.16800 | 16.55404 | 35985 ft | 486 kts | 163° |
| 2026-04-26 11:30 | -0.38409 | 16.61493 | 35988 ft | 486 kts | 163° |
| 2026-04-26 11:30 | -0.68820 | 16.70040 | 35980 ft | 486 kts | 163° |
| 2026-04-26 11:31 | -0.94683 | 16.77271 | 35977 ft | 485 kts | 163° |
| 2026-04-26 11:31 | -1.20671 | 16.84544 | 35974 ft | 486 kts | 163° |
| 2026-04-26 11:32 | -1.46743 | 16.91734 | 35968 ft | 486 kts | 163° |
| 2026-04-26 11:32 | -1.72830 | 16.98928 | 35966 ft | 486 kts | 163° |
| 2026-04-26 11:33 | -1.98875 | 17.06140 | 35961 ft | 485 kts | 163° |
| 2026-04-26 11:33 | -2.24896 | 17.13403 | 35957 ft | 484 kts | 163° |
| 2026-04-26 11:34 | -2.50814 | 17.20641 | 35944 ft | 484 kts | 163° |
| 2026-04-26 11:34 | -2.76692 | 17.27870 | 35944 ft | 482 kts | 163° |
| 2026-04-26 11:35 | -3.02569 | 17.35102 | 35938 ft | 481 kts | 162° |
| 2026-04-26 11:35 | -3.24006 | 17.41096 | 35942 ft | 481 kts | 162° |
| 2026-04-26 11:36 | -3.53526 | 17.49370 | 35939 ft | 480 kts | 162° |
| 2026-04-26 11:36 | -3.79194 | 17.56589 | 35939 ft | 479 kts | 162° |
| 2026-04-26 11:37 | -4.04703 | 17.63766 | 35935 ft | 479 kts | 162° |
| 2026-04-26 11:37 | -4.30364 | 17.70956 | 35942 ft | 479 kts | 162° |
| 2026-04-26 11:38 | -4.56245 | 17.78204 | 35941 ft | 479 kts | 162° |
| 2026-04-26 11:38 | -4.81763 | 17.85355 | 35944 ft | 481 kts | 162° |
| 2026-04-26 11:39 | -5.07525 | 17.92681 | 35955 ft | 480 kts | 162° |
| 2026-04-26 11:39 | -5.33493 | 18.00091 | 35959 ft | 486 kts | 162° |
| 2026-04-26 11:40 | -5.59601 | 18.07335 | 35963 ft | 489 kts | 162° |
| 2026-04-26 11:40 | -5.85787 | 18.14543 | 35962 ft | 484 kts | 161° |
| 2026-04-26 11:42 | -6.88810 | 18.43370 | 35958 ft | 477 kts | 161° |
| 2026-04-26 11:43 | -7.14308 | 18.50531 | 35959 ft | 475 kts | 161° |
| 2026-04-26 11:43 | -7.39698 | 18.58155 | 35958 ft | 477 kts | 160° |
| 2026-04-26 11:44 | -7.65129 | 18.65892 | 35947 ft | 477 kts | 160° |
| 2026-04-26 11:44 | -7.90541 | 18.73633 | 35952 ft | 477 kts | 160° |
| 2026-04-26 11:45 | -8.15897 | 18.81366 | 35953 ft | 475 kts | 160° |
| 2026-04-26 11:45 | -8.41151 | 18.89056 | 35948 ft | 474 kts | 160° |
| 2026-04-26 11:46 | -8.66453 | 18.96612 | 35946 ft | 474 kts | 160° |
| 2026-04-26 11:46 | -8.91741 | 19.04194 | 35947 ft | 474 kts | 160° |
| 2026-04-26 11:47 | -9.16861 | 19.11735 | 35938 ft | 474 kts | 160° |
| 2026-04-26 11:47 | -9.42086 | 19.19319 | 35941 ft | 472 kts | 160° |
| 2026-04-26 11:48 | -9.67253 | 19.26900 | 35944 ft | 471 kts | 160° |
| 2026-04-26 11:48 | -9.92338 | 19.34374 | 35945 ft | 470 kts | 160° |
| 2026-04-26 11:49 | -10.17412 | 19.41869 | 35952 ft | 469 kts | 160° |
| 2026-04-26 11:49 | -10.42424 | 19.49357 | 35965 ft | 467 kts | 161° |
| 2026-04-26 11:50 | -10.67344 | 19.56831 | 35969 ft | 467 kts | 161° |
| 2026-04-26 11:50 | -10.92237 | 19.64308 | 35971 ft | 466 kts | 161° |
| 2026-04-26 11:51 | -11.17127 | 19.71798 | 35970 ft | 466 kts | 161° |
| 2026-04-26 11:51 | -11.42013 | 19.79301 | 35978 ft | 467 kts | 161° |
| 2026-04-26 11:52 | -11.54435 | 19.83051 | 36125 ft | 465 kts | 161° |
| 2026-04-26 11:52 | -11.62663 | 19.85536 | 36225 ft | 465 kts | 161° |
| 2026-04-26 11:52 | -11.91176 | 19.95660 | 36218 ft | 464 kts | 156° |
| 2026-04-26 11:53 | -12.03172 | 20.00554 | 35977 ft | 464 kts | 156° |
| 2026-04-26 11:53 | -12.15198 | 20.05451 | 35979 ft | 465 kts | 156° |
| 2026-04-26 11:54 | -12.51198 | 20.20137 | 35979 ft | 464 kts | 156° |
| 2026-04-26 11:54 | -12.75195 | 20.29952 | 35983 ft | 465 kts | 156° |
| 2026-04-26 11:55 | -12.99238 | 20.39806 | 35984 ft | 465 kts | 156° |
| 2026-04-26 11:55 | -13.23113 | 20.49611 | 35987 ft | 465 kts | 156° |
| 2026-04-26 11:56 | -13.47133 | 20.59497 | 35991 ft | 465 kts | 156° |
| 2026-04-26 11:56 | -13.71177 | 20.69415 | 35988 ft | 466 kts | 156° |
| 2026-04-26 11:57 | -13.95252 | 20.79366 | 35991 ft | 466 kts | 156° |
| 2026-04-26 11:57 | -14.19290 | 20.89325 | 35990 ft | 466 kts | 156° |
| 2026-04-26 11:58 | -14.43342 | 20.99313 | 35992 ft | 466 kts | 156° |
| 2026-04-26 11:58 | -14.67432 | 21.09341 | 35994 ft | 468 kts | 157° |
| 2026-04-26 11:59 | -14.87492 | 21.17708 | 35993 ft | 466 kts | 157° |
| 2026-04-26 11:59 | -15.11579 | 21.27778 | 35991 ft | 467 kts | 157° |
| 2026-04-26 12:00 | -15.35715 | 21.37894 | 35990 ft | 469 kts | 157° |
| 2026-04-26 12:00 | -15.59462 | 21.47871 | 37469 ft | 470 kts | 158° |
| 2026-04-26 12:00 | -15.71718 | 21.53030 | 35978 ft | 471 kts | 157° |
| 2026-04-26 12:01 | -15.83877 | 21.58154 | 35987 ft | 471 kts | 157° |
| 2026-04-26 12:01 | -16.08184 | 21.68419 | 35995 ft | 472 kts | 157° |
| 2026-04-26 12:02 | -16.32551 | 21.78737 | 35996 ft | 474 kts | 158° |
| 2026-04-26 12:02 | -16.54643 | 21.88115 | 35999 ft | 472 kts | 158° |
| 2026-04-26 12:03 | -17.06701 | 22.10307 | 36006 ft | 473 kts | 158° |
| 2026-04-26 12:04 | -17.31112 | 22.20760 | 36007 ft | 474 kts | 158° |
| 2026-04-26 12:04 | -17.55550 | 22.31253 | 36013 ft | 474 kts | 158° |
| 2026-04-26 12:05 | -17.79959 | 22.41766 | 36018 ft | 474 kts | 159° |
| 2026-04-26 12:05 | -18.04164 | 22.52758 | 36017 ft | 473 kts | 159° |
| 2026-04-26 12:06 | -18.28343 | 22.63419 | 36018 ft | 474 kts | 158° |
| 2026-04-26 12:06 | -18.52689 | 22.74240 | 36023 ft | 476 kts | 159° |
| 2026-04-26 12:07 | -18.77063 | 22.84972 | 36024 ft | 475 kts | 160° |
| 2026-04-26 12:07 | -18.97588 | 22.93772 | 36031 ft | 475 kts | 160° |
| 2026-04-26 12:08 | -19.25970 | 23.06272 | 36029 ft | 476 kts | 159° |
| 2026-04-26 12:08 | -19.46398 | 23.15355 | 36031 ft | 474 kts | 159° |
| 2026-04-26 12:09 | -19.70757 | 23.26218 | 36067 ft | 475 kts | 160° |
| 2026-04-26 12:09 | -19.95134 | 23.37125 | 36184 ft | 476 kts | 160° |
| 2026-04-26 12:09 | -20.06551 | 23.44400 | 36051 ft | 481 kts | 148° |
| 2026-04-26 12:10 | -20.17497 | 23.52606 | 36056 ft | 481 kts | 148° |
| 2026-04-26 12:10 | -20.39291 | 23.68901 | 36056 ft | 482 kts | 148° |
| 2026-04-26 12:11 | -20.61212 | 23.85329 | 36061 ft | 480 kts | 148° |
| 2026-04-26 12:11 | -20.83183 | 24.01863 | 36068 ft | 482 kts | 148° |
| 2026-04-26 12:12 | -21.04928 | 24.18280 | 36068 ft | 482 kts | 148° |
| 2026-04-26 12:12 | -21.26825 | 24.34874 | 36081 ft | 483 kts | 149° |
| 2026-04-26 12:13 | -21.48783 | 24.51575 | 36081 ft | 483 kts | 148° |
| 2026-04-26 12:13 | -21.70715 | 24.68319 | 36080 ft | 484 kts | 149° |
| 2026-04-26 12:14 | -21.92668 | 24.85147 | 36083 ft | 486 kts | 149° |
| 2026-04-26 12:14 | -22.14729 | 25.02040 | 36086 ft | 487 kts | 149° |
| 2026-04-26 12:15 | -22.36736 | 25.18969 | 36102 ft | 487 kts | 149° |
| 2026-04-26 12:15 | -22.58790 | 25.35999 | 36119 ft | 486 kts | 149° |
| 2026-04-26 12:16 | -22.80805 | 25.53068 | 36114 ft | 487 kts | 149° |
| 2026-04-26 12:16 | -23.02812 | 25.70468 | 36142 ft | 489 kts | 148° |
| 2026-04-26 12:17 | -23.24502 | 25.88258 | 36141 ft | 489 kts | 148° |
| 2026-04-26 12:17 | -23.46236 | 26.06104 | 36153 ft | 489 kts | 148° |
| 2026-04-26 12:18 | -23.68541 | 26.22827 | 36164 ft | 487 kts | 154° |
| 2026-04-26 12:18 | -23.90721 | 26.40110 | 36182 ft | 491 kts | 149° |
| 2026-04-26 12:19 | -24.12752 | 26.57872 | 36193 ft | 492 kts | 149° |
| 2026-04-26 12:19 | -24.34568 | 26.75970 | 36232 ft | 495 kts | 145° |
| 2026-04-26 12:20 | -24.55236 | 26.96078 | 36223 ft | 495 kts | 144° |
| 2026-04-26 12:20 | -24.75551 | 27.15934 | 36054 ft | 500 kts | 139° |
| 2026-04-26 12:20 | -24.85627 | 27.25828 | 36226 ft | 496 kts | 144° |
| 2026-04-26 12:21 | -24.95957 | 27.35983 | 36232 ft | 497 kts | 144° |
| 2026-04-26 12:21 | -25.07236 | 27.43363 | 34042 ft | 459 kts | 181° |
| 2026-04-26 12:21 | -25.19981 | 27.43712 | 31005 ft | 460 kts | 186° |
| 2026-04-26 12:21 | -25.32797 | 27.43884 | 27939 ft | 460 kts | 185° |
| 2026-04-26 12:22 | -25.45247 | 27.44067 | 26390 ft | 422 kts | 185° |
| 2026-04-26 12:22 | -25.56428 | 27.44222 | 25638 ft | 382 kts | 185° |
| 2026-04-26 12:22 | -25.66696 | 27.44358 | 24571 ft | 362 kts | 184° |
| 2026-04-26 12:22 | -25.74995 | 27.49730 | 23112 ft | 380 kts | 125° |
| 2026-04-26 12:23 | -25.80454 | 27.59590 | 21715 ft | 370 kts | 124° |
| 2026-04-26 12:23 | -25.82168 | 27.62666 | 21270 ft | 367 kts | 124° |
| 2026-04-26 12:23 | -25.83507 | 27.65068 | 20951 ft | 366 kts | 124° |
| 2026-04-26 12:23 | -25.84859 | 27.67491 | 20569 ft | 365 kts | 124° |
| 2026-04-26 12:24 | -25.86180 | 27.69858 | 20236 ft | 364 kts | 124° |
| 2026-04-26 12:24 | -25.87526 | 27.72273 | 19943 ft | 361 kts | 124° |
| 2026-04-26 12:24 | -25.88842 | 27.74633 | 19648 ft | 359 kts | 124° |
| 2026-04-26 12:25 | -25.91460 | 27.79326 | 19186 ft | 355 kts | 124° |
| 2026-04-26 12:25 | -25.92753 | 27.81650 | 18889 ft | 353 kts | 124° |
| 2026-04-26 12:25 | -25.94024 | 27.83936 | 18613 ft | 351 kts | 124° |
| 2026-04-26 12:25 | -25.95305 | 27.86241 | 18295 ft | 349 kts | 124° |
| 2026-04-26 12:26 | -25.96578 | 27.88530 | 17988 ft | 347 kts | 124° |
| 2026-04-26 12:26 | -25.97839 | 27.90801 | 17673 ft | 345 kts | 124° |
| 2026-04-26 12:26 | -25.99095 | 27.93063 | 17362 ft | 343 kts | 123° |
| 2026-04-26 12:26 | -26.00343 | 27.95312 | 17057 ft | 341 kts | 123° |
| 2026-04-26 12:27 | -26.01583 | 27.97545 | 16761 ft | 338 kts | 123° |
| 2026-04-26 12:27 | -26.02805 | 27.99749 | 16595 ft | 331 kts | 123° |
| 2026-04-26 12:27 | -26.03989 | 28.01887 | 16401 ft | 317 kts | 123° |
| 2026-04-26 12:27 | -26.05115 | 28.03924 | 16134 ft | 301 kts | 123° |
| 2026-04-26 12:28 | -26.06192 | 28.05871 | 15779 ft | 292 kts | 123° |
| 2026-04-26 12:28 | -26.07306 | 28.07725 | 15482 ft | 286 kts | 134° |
| 2026-04-26 12:28 | -26.08867 | 28.09003 | 15332 ft | 276 kts | 162° |
| 2026-04-26 12:28 | -26.10708 | 28.09463 | 15192 ft | 269 kts | 175° |
| 2026-04-26 12:29 | -26.12563 | 28.09706 | 15014 ft | 267 kts | 176° |
| 2026-04-26 12:29 | -26.14405 | 28.09726 | 14807 ft | 264 kts | 192° |
| 2026-04-26 12:29 | -26.17860 | 28.08499 | 14443 ft | 259 kts | 202° |
| 2026-04-26 12:30 | -26.19547 | 28.07800 | 14283 ft | 258 kts | 202° |
| 2026-04-26 12:30 | -26.21227 | 28.07109 | 14094 ft | 257 kts | 202° |
| 2026-04-26 12:30 | -26.22910 | 28.06421 | 13855 ft | 258 kts | 202° |
| 2026-04-26 12:31 | -26.26507 | 28.04962 | 13400 ft | 256 kts | 202° |
| 2026-04-26 12:31 | -26.30781 | 28.03229 | 12877 ft | 253 kts | 202° |
| 2026-04-26 12:31 | -26.32390 | 28.02577 | 12673 ft | 253 kts | 202° |
| 2026-04-26 12:31 | -26.34043 | 28.01908 | 12452 ft | 252 kts | 202° |
| 2026-04-26 12:32 | -26.35743 | 28.01409 | 12223 ft | 254 kts | 186° |
| 2026-04-26 12:32 | -26.37485 | 28.01716 | 12006 ft | 260 kts | 156° |
| 2026-04-26 12:32 | -26.39465 | 28.04884 | 11546 ft | 266 kts | 93° |
| 2026-04-26 12:33 | -26.39097 | 28.06897 | 11233 ft | 269 kts | 60° |
| 2026-04-26 12:33 | -26.37942 | 28.08533 | 10909 ft | 270 kts | 44° |
| 2026-04-26 12:33 | -26.36599 | 28.10023 | 10587 ft | 275 kts | 46° |
| 2026-04-26 12:33 | -26.35586 | 28.11827 | 10274 ft | 280 kts | 68° |
| 2026-04-26 12:34 | -26.34984 | 28.13914 | 9944 ft | 283 kts | 74° |
| 2026-04-26 12:34 | -26.34467 | 28.16031 | 9493 ft | 283 kts | 75° |
| 2026-04-26 12:34 | -26.33896 | 28.18096 | 9002 ft | 274 kts | 64° |
| 2026-04-26 12:34 | -26.32706 | 28.19645 | 8519 ft | 260 kts | 28° |
| 2026-04-26 12:35 | -26.31088 | 28.20341 | 8301 ft | 240 kts | 11° |
| 2026-04-26 12:35 | -26.29529 | 28.20737 | 8131 ft | 219 kts | 11° |
| 2026-04-26 12:35 | -26.28121 | 28.21179 | 7901 ft | 202 kts | 15° |
| 2026-04-26 12:35 | -26.26828 | 28.21594 | 7676 ft | 187 kts | 12° |
| 2026-04-26 12:36 | -26.25609 | 28.21967 | 7419 ft | 176 kts | 13° |
| 2026-04-26 12:36 | -26.24473 | 28.22324 | 7158 ft | 163 kts | 13° |
| 2026-04-26 12:36 | -26.23430 | 28.22650 | 6976 ft | 151 kts | 12° |
| 2026-04-26 12:36 | -26.22439 | 28.22956 | 6794 ft | 152 kts | 13° |
| 2026-04-26 12:37 | -26.21416 | 28.23277 | 6610 ft | 149 kts | 12° |
| 2026-04-26 12:37 | -26.20427 | 28.23585 | 6398 ft | 147 kts | 11° |
| 2026-04-26 12:37 | -26.19447 | 28.23890 | 6184 ft | 145 kts | 10° |
| 2026-04-26 12:37 | -26.18478 | 28.24191 | 5967 ft | 145 kts | 12° |
| 2026-04-26 12:38 | -26.17509 | 28.24490 | 5766 ft | 144 kts | 13° |
| 2026-04-26 12:38 | -26.16550 | 28.24791 | 5585 ft | 142 kts | 12° |
| 2026-04-26 12:38 | -26.15651 | 28.25064 | 5520 ft | 107 kts | 17° |
| 2026-04-26 12:38 | -26.15140 | 28.25227 | 5514 ft | 48 kts | 15° |
| 2026-04-26 12:39 | -26.14924 | 28.25292 | 5513 ft | 28 kts | 15° |
| 2026-04-26 12:39 | -26.14738 | 28.25323 | 5509 ft | 26 kts | 2° |
| 2026-04-26 12:39 | -26.14576 | 28.25294 | 5511 ft | 21 kts | 344° |
| 2026-04-26 12:39 | -26.14551 | 28.25285 | 5512 ft | 0 kts | 337° |
| 2026-04-26 12:40 | -26.14548 | 28.25283 | 5512 ft | 3 kts | 335° |
| 2026-04-26 12:40 | -26.14518 | 28.25258 | 5513 ft | 8 kts | 318° |
| 2026-04-26 12:41 | -26.14465 | 28.25200 | 5515 ft | 13 kts | 315° |
| 2026-04-26 12:41 | -26.14390 | 28.25119 | 5520 ft | 15 kts | 316° |
| 2026-04-26 12:41 | -26.14325 | 28.25048 | 5534 ft | 10 kts | 316° |
| 2026-04-26 12:41 | -26.14280 | 28.25000 | 5535 ft | 9 kts | 315° |
| 2026-04-26 12:42 | -26.14226 | 28.24941 | 5535 ft | 11 kts | 315° |
| 2026-04-26 12:42 | -26.14169 | 28.24879 | 5535 ft | 12 kts | 316° |
| 2026-04-26 12:42 | -26.14108 | 28.24812 | 5535 ft | 13 kts | 316° |
| 2026-04-26 12:42 | -26.14043 | 28.24743 | 5536 ft | 13 kts | 316° |
| 2026-04-26 12:43 | -26.13980 | 28.24676 | 5536 ft | 12 kts | 316° |
| 2026-04-26 12:43 | -26.13918 | 28.24608 | 5536 ft | 13 kts | 315° |
| 2026-04-26 12:43 | -26.13856 | 28.24540 | 5537 ft | 12 kts | 315° |
| 2026-04-26 12:43 | -26.13795 | 28.24472 | 5546 ft | 13 kts | 315° |
| 2026-04-26 12:44 | -26.13724 | 28.24394 | 5548 ft | 16 kts | 315° |
| 2026-04-26 12:44 | -26.13645 | 28.24310 | 5548 ft | 16 kts | 318° |
| 2026-04-26 12:44 | -26.13569 | 28.24229 | 5547 ft | 15 kts | 315° |
| 2026-04-26 12:44 | -26.13497 | 28.24151 | 5551 ft | 13 kts | 315° |
| 2026-04-26 12:45 | -26.13440 | 28.24089 | 5557 ft | 11 kts | 315° |
| 2026-04-26 12:45 | -26.13382 | 28.24026 | 5558 ft | 12 kts | 316° |
| 2026-04-26 12:45 | -26.13312 | 28.23951 | 5556 ft | 16 kts | 315° |
| 2026-04-26 12:45 | -26.13226 | 28.23858 | 5553 ft | 18 kts | 316° |
| 2026-04-26 12:46 | -26.13148 | 28.23758 | 5553 ft | 17 kts | 291° |
| 2026-04-26 12:46 | -26.13131 | 28.23632 | 5553 ft | 16 kts | 276° |
| 2026-04-26 12:46 | -26.13119 | 28.23513 | 5555 ft | 15 kts | 277° |
| 2026-04-26 12:46 | -26.13094 | 28.23434 | 5556 ft | 7 kts | 310° |
| 2026-04-26 12:47 | -26.13055 | 28.23398 | 5555 ft | 7 kts | 321° |
| 2026-04-26 12:47 | -26.13023 | 28.23369 | 5556 ft | 2 kts | 324° |
| 2026-04-26 12:47 | -26.13019 | 28.23366 | 5555 ft | 0 kts | 324° |